Dunbar, Kentucky
Current Conditions -  °F | °C
As of 12:53 PM on Thursday 30 Oct 2014 (Local Time) from KBWG Reporting Station
Clear Clear  
Wind Chill: 56°   Ceiling: Unl
Heat Index: 56°   Visibility: 10mi
Dew Point: 37°   Wind: 0mph
Humidity: 49%   Direction: NA
Pressure: 30.12"   Gusts: NA
Location:  37.16°N, 86.76°W
Report Text: KBWG 301753Z AUTO 00000KT 10SM CLR 13/03 A3012 RMK AO2 SLP201 T01330028 10139 20022 58021
Loading
Personal Weather Stations






























Interactive Weather Map
Tropical Storm Tracking
New forecast layout! Learn more

10-Day Weather Forecast

Advertisements
Track Severe Weather on mobile